createdAt,value
2019-03-25T00:02:32.132Z,6.30
2019-03-25T00:07:38.836Z,6.40
2019-03-25T00:12:45.527Z,6.30
2019-03-25T00:17:52.168Z,6.40
2019-03-25T00:22:58.667Z,6.50
2019-03-25T00:28:05.272Z,6.60
2019-03-25T00:33:11.969Z,6.50
2019-03-25T00:38:18.581Z,6.50
2019-03-25T00:43:25.217Z,6.50
2019-03-25T00:48:31.720Z,6.40
2019-03-25T00:53:38.316Z,6.40
2019-03-25T00:58:45.029Z,6.30
2019-03-25T01:03:51.574Z,6.10
2019-03-25T01:08:58.150Z,6.00
2019-03-25T01:14:04.748Z,5.90
2019-03-25T01:19:11.744Z,5.80
2019-03-25T01:24:18.316Z,5.80
2019-03-25T01:29:24.919Z,5.70
2019-03-25T01:34:31.502Z,5.60
2019-03-25T01:39:38.104Z,5.40
2019-03-25T01:44:44.693Z,5.20
2019-03-25T01:49:51.284Z,5.30
2019-03-25T01:54:57.849Z,5.40
2019-03-25T02:00:04.565Z,5.50
2019-03-25T02:05:11.267Z,5.60
2019-03-25T02:10:18.129Z,5.70
2019-03-25T02:15:24.644Z,5.60
2019-03-25T02:20:31.239Z,5.60
2019-03-25T02:25:37.890Z,5.60
2019-03-25T02:30:44.497Z,5.50
2019-03-25T02:35:51.184Z,5.40
2019-03-25T02:40:57.748Z,5.30
2019-03-25T02:46:04.447Z,5.00
2019-03-25T02:51:11.016Z,4.90
2019-03-25T02:56:17.652Z,4.70
2019-03-25T03:01:24.283Z,4.50
2019-03-25T03:06:31.915Z,4.40
2019-03-25T03:11:38.394Z,4.20
2019-03-25T03:16:45.028Z,3.90
2019-03-25T03:21:51.633Z,3.90
2019-03-25T03:26:58.171Z,3.80
2019-03-25T03:32:04.923Z,3.90
2019-03-25T03:37:11.685Z,4.00
2019-03-25T03:42:18.351Z,4.00
2019-03-25T03:47:24.919Z,4.00
2019-03-25T03:52:31.605Z,4.00
2019-03-25T03:57:38.494Z,4.00
2019-03-25T04:02:45.007Z,4.20
2019-03-25T04:07:51.579Z,4.30
2019-03-25T04:12:58.258Z,4.30
2019-03-25T04:18:04.850Z,4.40
2019-03-25T04:23:11.548Z,4.40
2019-03-25T04:28:18.049Z,4.40
2019-03-25T04:33:24.621Z,4.50
2019-03-25T04:38:31.284Z,4.40
2019-03-25T04:43:37.800Z,4.30
2019-03-25T04:48:44.483Z,4.20
2019-03-25T04:53:51.076Z,4.20
2019-03-25T04:58:57.626Z,4.20
2019-03-25T05:04:04.329Z,4.00
2019-03-25T05:09:10.925Z,4.00
2019-03-25T05:14:17.614Z,3.90
2019-03-25T05:19:24.315Z,4.10
2019-03-25T05:24:30.932Z,4.10
2019-03-25T05:29:37.549Z,4.20
2019-03-25T05:34:44.523Z,4.20
2019-03-25T05:39:55.779Z,4.10
2019-03-25T05:45:02.444Z,4.20
2019-03-25T05:50:09.384Z,4.50
2019-03-25T05:55:17.074Z,4.60
2019-03-25T06:00:25.842Z,4.70
2019-03-25T06:05:32.389Z,4.90
2019-03-25T06:10:38.977Z,4.90
2019-03-25T06:15:45.609Z,4.90
2019-03-25T06:20:52.125Z,5.10
2019-03-25T06:25:58.710Z,5.30
2019-03-25T06:31:05.331Z,5.50
2019-03-25T06:36:11.948Z,5.70
2019-03-25T06:41:18.499Z,5.80
2019-03-25T06:46:25.082Z,5.90
2019-03-25T06:51:32.703Z,5.60
2019-03-25T06:56:39.347Z,5.70
2019-03-25T07:01:46.117Z,5.80
2019-03-25T07:06:52.751Z,5.90
2019-03-25T07:11:59.247Z,6.00
2019-03-25T07:17:05.830Z,5.90
2019-03-25T07:22:12.341Z,6.00
2019-03-25T07:27:18.916Z,6.40
2019-03-25T07:32:25.569Z,6.00
2019-03-25T07:37:32.070Z,5.40
2019-03-25T07:42:38.776Z,4.90
2019-03-25T07:47:45.375Z,4.90
2019-03-25T07:52:51.984Z,5.30
2019-03-25T07:57:58.591Z,5.70
2019-03-25T08:03:05.010Z,6.40
2019-03-25T08:08:11.545Z,6.50
2019-03-25T08:13:18.210Z,6.80
2019-03-25T08:18:24.978Z,6.60
2019-03-25T08:23:32.586Z,6.30
2019-03-25T08:28:39.082Z,5.50
2019-03-25T08:33:45.708Z,4.70
2019-03-25T08:38:52.351Z,4.20
2019-03-25T08:43:58.925Z,3.90
2019-03-25T08:49:05.709Z,3.90
2019-03-25T08:54:12.236Z,4.00
2019-03-25T08:59:18.821Z,4.00
2019-03-25T09:04:25.492Z,4.20
2019-03-25T09:09:32.120Z,4.20
2019-03-25T09:14:38.776Z,4.10
2019-03-25T09:19:45.277Z,4.20
2019-03-25T09:24:51.866Z,4.30
2019-03-25T09:29:58.504Z,4.40
2019-03-25T09:35:05.095Z,4.30
2019-03-25T09:40:12.247Z,4.40
2019-03-25T09:45:19.007Z,4.40
2019-03-25T09:50:25.585Z,4.50
2019-03-25T09:55:32.292Z,4.60
2019-03-25T10:00:38.863Z,5.00
2019-03-25T10:05:45.477Z,5.70
2019-03-25T10:10:52.177Z,6.60
2019-03-25T10:15:58.774Z,7.80
2019-03-25T10:21:05.397Z,8.50
2019-03-25T10:26:12.019Z,7.60
2019-03-25T10:31:18.780Z,6.40
2019-03-25T10:36:25.382Z,6.50
2019-03-25T10:41:31.873Z,7.00
2019-03-25T10:46:38.537Z,8.10
2019-03-25T10:51:45.063Z,7.40
2019-03-25T10:56:51.714Z,6.90
2019-03-25T11:01:58.257Z,6.40
2019-03-25T11:07:04.922Z,6.40
2019-03-25T11:12:11.395Z,7.90
2019-03-25T11:17:18.017Z,12.50
2019-03-25T11:22:24.483Z,13.10
2019-03-25T11:27:31.053Z,11.30
2019-03-25T11:32:37.629Z,8.40
2019-03-25T11:37:44.236Z,9.40
2019-03-25T11:42:50.815Z,13.00
2019-03-25T11:47:57.419Z,14.50
2019-03-25T11:53:04.069Z,12.40
2019-03-25T11:58:10.576Z,12.10
2019-03-25T12:03:17.150Z,11.00
2019-03-25T12:08:23.567Z,13.20
2019-03-25T12:13:30.215Z,14.10
2019-03-25T12:18:36.727Z,10.40
2019-03-25T12:23:43.341Z,8.50
2019-03-25T12:28:49.804Z,12.90
2019-03-25T12:33:56.402Z,15.60
2019-03-25T12:39:02.969Z,17.50
2019-03-25T12:44:09.545Z,14.30
2019-03-25T12:49:17.925Z,11.50
2019-03-25T12:54:24.522Z,11.70
2019-03-25T12:59:40.825Z,11.20
2019-03-25T13:04:39.384Z,10.40
2019-03-25T13:09:46.064Z,9.90
2019-03-25T13:14:52.794Z,8.90
2019-03-25T13:19:59.334Z,9.50
2019-03-25T13:25:06.376Z,10.10
2019-03-25T13:30:13.336Z,10.10
2019-03-25T13:35:19.944Z,12.00
2019-03-25T13:40:26.586Z,11.90
2019-03-25T13:45:33.246Z,10.60
2019-03-25T13:50:39.853Z,10.20
2019-03-25T13:55:46.423Z,10.00
2019-03-25T14:00:53.063Z,10.00
2019-03-25T14:05:59.711Z,10.50
2019-03-25T14:11:06.448Z,10.60
2019-03-25T14:16:13.060Z,10.00
2019-03-25T14:21:19.604Z,9.30
2019-03-25T14:26:26.293Z,8.80
2019-03-25T14:31:32.947Z,8.20
2019-03-25T14:36:39.587Z,7.30
2019-03-25T14:41:46.190Z,6.80
2019-03-25T14:46:52.830Z,6.70
2019-03-25T14:51:59.375Z,6.50
2019-03-25T14:57:06.030Z,7.10
2019-03-25T15:02:12.619Z,7.30
2019-03-25T15:07:19.223Z,7.70
2019-03-25T15:12:25.716Z,7.40
2019-03-25T15:17:32.299Z,7.10
2019-03-25T15:22:38.961Z,7.00
2019-03-25T15:27:45.351Z,6.90
2019-03-25T15:32:52.113Z,6.90
2019-03-25T15:37:58.629Z,6.80
2019-03-25T15:43:05.326Z,6.20
2019-03-25T15:48:11.994Z,6.10
2019-03-25T15:53:18.606Z,6.00
2019-03-25T15:58:27.171Z,6.00
2019-03-25T16:03:34.023Z,6.00
2019-03-25T16:08:40.635Z,6.00
2019-03-25T16:13:47.240Z,5.80
2019-03-25T16:18:53.877Z,5.60
2019-03-25T16:24:01.583Z,5.80
2019-03-25T16:29:09.504Z,5.90
2019-03-25T16:34:16.208Z,5.60
2019-03-25T16:39:22.989Z,5.30
2019-03-25T16:44:29.722Z,5.20
2019-03-25T16:49:36.350Z,5.20
2019-03-25T16:54:42.956Z,5.20
2019-03-25T16:59:50.160Z,5.20
2019-03-25T17:04:56.739Z,5.40
2019-03-25T17:10:04.985Z,5.60
2019-03-25T17:15:13.329Z,5.60
2019-03-25T17:20:19.904Z,5.60
2019-03-25T17:25:26.476Z,5.60
2019-03-25T17:30:32.833Z,5.50
2019-03-25T17:35:39.891Z,5.40
2019-03-25T17:40:46.817Z,5.20
2019-03-25T17:45:53.529Z,5.20
2019-03-25T17:51:00.628Z,4.90
2019-03-25T17:56:07.488Z,4.80
2019-03-25T18:01:19.260Z,4.30
2019-03-25T18:06:25.867Z,3.90
2019-03-25T18:11:32.620Z,3.70
2019-03-25T18:16:39.621Z,3.70
2019-03-25T18:21:46.273Z,3.80
2019-03-25T18:26:53.650Z,3.80
2019-03-25T18:32:03.739Z,4.00
2019-03-25T18:37:12.025Z,4.20
2019-03-25T18:42:18.853Z,4.20
2019-03-25T18:47:25.796Z,3.90
2019-03-25T18:52:32.361Z,3.90
2019-03-25T18:57:39.060Z,3.90
2019-03-25T19:02:45.686Z,3.80
2019-03-25T19:07:52.344Z,3.80
2019-03-25T19:12:58.964Z,3.70
2019-03-25T19:18:05.713Z,3.70
2019-03-25T19:23:12.247Z,3.60
2019-03-25T19:28:18.944Z,3.60
2019-03-25T19:33:44.280Z,3.60
2019-03-25T19:38:50.897Z,3.70
2019-03-25T19:43:58.219Z,3.70
2019-03-25T19:49:04.864Z,3.70
2019-03-25T19:54:11.437Z,3.60
2019-03-25T19:59:18.139Z,3.60
2019-03-25T20:04:26.055Z,3.50
2019-03-25T20:09:32.604Z,3.70
2019-03-25T20:14:39.243Z,3.80
2019-03-25T20:19:45.728Z,3.90
2019-03-25T20:24:53.115Z,3.80
2019-03-25T20:29:59.662Z,3.60
2019-03-25T20:35:06.433Z,3.60
2019-03-25T20:40:14.068Z,3.50
2019-03-25T20:45:20.784Z,3.50
2019-03-25T20:50:27.394Z,3.40
2019-03-25T20:55:34.088Z,3.50
2019-03-25T21:00:51.377Z,3.50
2019-03-25T21:05:58.159Z,3.60
2019-03-25T21:11:04.755Z,3.70
2019-03-25T21:16:11.322Z,3.70
2019-03-25T21:21:17.913Z,3.70
2019-03-25T21:26:24.520Z,3.90
2019-03-25T21:31:31.224Z,4.00
2019-03-25T21:36:38.848Z,4.10
2019-03-25T21:41:45.568Z,3.90
2019-03-25T21:46:52.062Z,3.90
2019-03-25T21:51:58.719Z,3.80
2019-03-25T21:57:05.294Z,3.80
2019-03-25T22:02:11.860Z,3.80
2019-03-25T22:07:18.427Z,3.80
2019-03-25T22:12:25.025Z,3.90
2019-03-25T22:17:31.603Z,3.80
2019-03-25T22:22:38.112Z,3.60
2019-03-25T22:27:45.819Z,3.60
2019-03-25T22:32:52.451Z,3.40
2019-03-25T22:37:59.925Z,3.50
2019-03-25T22:43:06.520Z,3.50
2019-03-25T22:48:13.188Z,3.50
2019-03-25T22:53:19.796Z,3.40
2019-03-25T22:58:26.443Z,3.30
2019-03-25T23:03:39.032Z,3.40
2019-03-25T23:08:41.197Z,3.50
2019-03-25T23:13:47.876Z,3.70
2019-03-25T23:18:54.459Z,3.80
2019-03-25T23:24:01.134Z,3.80
2019-03-25T23:29:07.744Z,3.60
2019-03-25T23:34:14.317Z,3.50
2019-03-25T23:39:21.015Z,3.40
2019-03-25T23:44:27.598Z,3.30
2019-03-25T23:49:34.261Z,3.20
2019-03-25T23:54:40.864Z,3.10
2019-03-25T23:59:47.450Z,3.10
